sensor_id;sensor_type;location;lat;lon;timestamp;P1;durP1;ratioP1;P2;durP2;ratioP2
33108;SDS011;19481;51.118;6.940;2023-12-22T00:02:54;0.52;;;0.52;;
33108;SDS011;19481;51.118;6.940;2023-12-22T00:07:57;0.50;;;0.50;;
33108;SDS011;19481;51.118;6.940;2023-12-22T00:12:58;0.50;;;0.50;;
33108;SDS011;19481;51.118;6.940;2023-12-22T00:18:00;0.40;;;0.40;;
33108;SDS011;19481;51.118;6.940;2023-12-22T00:23:03;0.50;;;0.50;;
33108;SDS011;19481;51.118;6.940;2023-12-22T00:28:04;0.85;;;0.60;;
33108;SDS011;19481;51.118;6.940;2023-12-22T00:33:06;0.50;;;0.50;;
33108;SDS011;19481;51.118;6.940;2023-12-22T00:38:09;0.30;;;0.30;;
33108;SDS011;19481;51.118;6.940;2023-12-22T00:43:11;0.50;;;0.50;;
33108;SDS011;19481;51.118;6.940;2023-12-22T00:48:12;0.50;;;0.50;;
33108;SDS011;19481;51.118;6.940;2023-12-22T00:53:17;0.50;;;0.50;;
33108;SDS011;19481;51.118;6.940;2023-12-22T00:58:18;0.55;;;0.55;;
33108;SDS011;19481;51.118;6.940;2023-12-22T01:03:20;0.60;;;0.60;;
33108;SDS011;19481;51.118;6.940;2023-12-22T01:08:23;2.03;;;1.15;;
33108;SDS011;19481;51.118;6.940;2023-12-22T01:13:25;3.53;;;0.60;;
33108;SDS011;19481;51.118;6.940;2023-12-22T01:18:26;0.50;;;0.50;;
33108;SDS011;19481;51.118;6.940;2023-12-22T01:23:31;2.28;;;0.60;;
33108;SDS011;19481;51.118;6.940;2023-12-22T01:28:33;0.40;;;0.40;;
33108;SDS011;19481;51.118;6.940;2023-12-22T01:33:34;0.40;;;0.40;;
33108;SDS011;19481;51.118;6.940;2023-12-22T01:38:37;0.40;;;0.40;;
33108;SDS011;19481;51.118;6.940;2023-12-22T01:43:39;0.50;;;0.50;;
33108;SDS011;19481;51.118;6.940;2023-12-22T01:48:40;0.55;;;0.55;;
33108;SDS011;19481;51.118;6.940;2023-12-22T01:53:44;1.80;;;0.50;;
33108;SDS011;19481;51.118;6.940;2023-12-22T01:58:46;0.80;;;0.50;;
33108;SDS011;19481;51.118;6.940;2023-12-22T02:03:48;4.35;;;0.80;;
33108;SDS011;19481;51.118;6.940;2023-12-22T02:08:53;0.65;;;0.65;;
33108;SDS011;19481;51.118;6.940;2023-12-22T02:13:55;0.50;;;0.50;;
33108;SDS011;19481;51.118;6.940;2023-12-22T02:18:56;0.50;;;0.50;;
33108;SDS011;19481;51.118;6.940;2023-12-22T02:24:03;0.50;;;0.50;;
33108;SDS011;19481;51.118;6.940;2023-12-22T02:29:05;0.60;;;0.60;;
33108;SDS011;19481;51.118;6.940;2023-12-22T02:34:08;0.50;;;0.50;;
33108;SDS011;19481;51.118;6.940;2023-12-22T02:39:18;6.53;;;0.80;;
33108;SDS011;19481;51.118;6.940;2023-12-22T02:44:20;0.57;;;0.57;;
33108;SDS011;19481;51.118;6.940;2023-12-22T02:49:22;0.40;;;0.40;;
33108;SDS011;19481;51.118;6.940;2023-12-22T02:54:25;1.98;;;0.70;;
33108;SDS011;19481;51.118;6.940;2023-12-22T02:59:29;0.50;;;0.50;;
33108;SDS011;19481;51.118;6.940;2023-12-22T03:04:31;0.50;;;0.50;;
33108;SDS011;19481;51.118;6.940;2023-12-22T03:09:34;0.88;;;0.47;;
33108;SDS011;19481;51.118;6.940;2023-12-22T03:14:35;1.27;;;0.75;;
33108;SDS011;19481;51.118;6.940;2023-12-22T03:19:39;0.60;;;0.60;;
33108;SDS011;19481;51.118;6.940;2023-12-22T03:24:41;0.40;;;0.40;;
33108;SDS011;19481;51.118;6.940;2023-12-22T03:29:43;0.52;;;0.52;;
33108;SDS011;19481;51.118;6.940;2023-12-22T03:34:45;2.85;;;0.80;;
33108;SDS011;19481;51.118;6.940;2023-12-22T03:39:48;0.40;;;0.40;;
33108;SDS011;19481;51.118;6.940;2023-12-22T03:44:49;0.50;;;0.50;;
33108;SDS011;19481;51.118;6.940;2023-12-22T03:49:51;0.40;;;0.40;;
33108;SDS011;19481;51.118;6.940;2023-12-22T03:54:54;0.75;;;0.55;;
33108;SDS011;19481;51.118;6.940;2023-12-22T03:59:55;0.40;;;0.40;;
33108;SDS011;19481;51.118;6.940;2023-12-22T04:04:57;0.70;;;0.70;;
33108;SDS011;19481;51.118;6.940;2023-12-22T04:10:00;0.50;;;0.50;;
33108;SDS011;19481;51.118;6.940;2023-12-22T04:15:01;0.60;;;0.50;;
33108;SDS011;19481;51.118;6.940;2023-12-22T04:20:04;0.50;;;0.50;;
33108;SDS011;19481;51.118;6.940;2023-12-22T04:25:08;1.95;;;0.65;;
33108;SDS011;19481;51.118;6.940;2023-12-22T04:30:10;0.60;;;0.60;;
33108;SDS011;19481;51.118;6.940;2023-12-22T04:35:12;0.50;;;0.50;;
33108;SDS011;19481;51.118;6.940;2023-12-22T04:40:15;0.50;;;0.50;;
33108;SDS011;19481;51.118;6.940;2023-12-22T04:45:16;0.50;;;0.50;;
33108;SDS011;19481;51.118;6.940;2023-12-22T04:50:18;0.52;;;0.52;;
33108;SDS011;19481;51.118;6.940;2023-12-22T04:55:21;0.70;;;0.70;;
33108;SDS011;19481;51.118;6.940;2023-12-22T05:00:23;0.70;;;0.70;;
33108;SDS011;19481;51.118;6.940;2023-12-22T05:05:26;0.88;;;0.55;;
33108;SDS011;19481;51.118;6.940;2023-12-22T05:10:29;0.60;;;0.60;;
33108;SDS011;19481;51.118;6.940;2023-12-22T05:15:31;0.60;;;0.60;;
33108;SDS011;19481;51.118;6.940;2023-12-22T05:20:32;0.75;;;0.75;;
33108;SDS011;19481;51.118;6.940;2023-12-22T05:25:36;0.95;;;0.95;;
33108;SDS011;19481;51.118;6.940;2023-12-22T05:30:37;0.60;;;0.60;;
33108;SDS011;19481;51.118;6.940;2023-12-22T05:35:39;1.70;;;0.47;;
33108;SDS011;19481;51.118;6.940;2023-12-22T05:40:42;0.82;;;0.60;;
33108;SDS011;19481;51.118;6.940;2023-12-22T05:45:45;0.40;;;0.40;;
33108;SDS011;19481;51.118;6.940;2023-12-22T05:50:46;3.92;;;0.90;;
33108;SDS011;19481;51.118;6.940;2023-12-22T05:55:49;12.73;;;0.80;;
33108;SDS011;19481;51.118;6.940;2023-12-22T06:00:51;2.55;;;0.98;;
33108;SDS011;19481;51.118;6.940;2023-12-22T06:05:52;0.80;;;0.80;;
33108;SDS011;19481;51.118;6.940;2023-12-22T06:10:55;2.95;;;1.92;;
33108;SDS011;19481;51.118;6.940;2023-12-22T06:15:57;4.07;;;2.03;;
33108;SDS011;19481;51.118;6.940;2023-12-22T06:20:58;5.03;;;2.10;;
33108;SDS011;19481;51.118;6.940;2023-12-22T06:26:01;6.45;;;2.35;;
33108;SDS011;19481;51.118;6.940;2023-12-22T06:31:03;6.40;;;1.95;;
33108;SDS011;19481;51.118;6.940;2023-12-22T06:36:05;4.07;;;2.70;;
33108;SDS011;19481;51.118;6.940;2023-12-22T06:41:08;17.33;;;4.72;;
33108;SDS011;19481;51.118;6.940;2023-12-22T06:46:20;11.23;;;3.80;;
33108;SDS011;19481;51.118;6.940;2023-12-22T06:51:23;2.70;;;1.80;;
33108;SDS011;19481;51.118;6.940;2023-12-22T06:56:28;1.10;;;1.00;;
33108;SDS011;19481;51.118;6.940;2023-12-22T07:01:31;1.25;;;1.15;;
33108;SDS011;19481;51.118;6.940;2023-12-22T07:06:34;0.63;;;0.63;;
33108;SDS011;19481;51.118;6.940;2023-12-22T07:11:37;0.70;;;0.70;;
33108;SDS011;19481;51.118;6.940;2023-12-22T07:16:39;0.52;;;0.52;;
33108;SDS011;19481;51.118;6.940;2023-12-22T07:21:42;0.75;;;0.75;;
33108;SDS011;19481;51.118;6.940;2023-12-22T07:26:45;3.13;;;1.05;;
33108;SDS011;19481;51.118;6.940;2023-12-22T07:31:46;1.38;;;1.00;;
33108;SDS011;19481;51.118;6.940;2023-12-22T07:36:48;1.65;;;0.73;;
33108;SDS011;19481;51.118;6.940;2023-12-22T07:41:51;0.50;;;0.50;;
33108;SDS011;19481;51.118;6.940;2023-12-22T07:46:56;1.02;;;0.50;;
33108;SDS011;19481;51.118;6.940;2023-12-22T07:51:58;4.57;;;0.55;;
33108;SDS011;19481;51.118;6.940;2023-12-22T07:57:02;1.00;;;0.60;;
33108;SDS011;19481;51.118;6.940;2023-12-22T08:02:04;0.63;;;0.63;;
33108;SDS011;19481;51.118;6.940;2023-12-22T08:07:06;2.22;;;0.70;;
33108;SDS011;19481;51.118;6.940;2023-12-22T08:12:09;0.65;;;0.65;;
33108;SDS011;19481;51.118;6.940;2023-12-22T08:17:10;1.02;;;0.80;;
33108;SDS011;19481;51.118;6.940;2023-12-22T08:22:13;0.85;;;0.50;;
33108;SDS011;19481;51.118;6.940;2023-12-22T08:27:16;1.33;;;0.60;;
33108;SDS011;19481;51.118;6.940;2023-12-22T08:32:17;1.92;;;1.02;;
33108;SDS011;19481;51.118;6.940;2023-12-22T08:37:19;1.08;;;0.60;;
33108;SDS011;19481;51.118;6.940;2023-12-22T08:42:22;2.28;;;0.90;;
33108;SDS011;19481;51.118;6.940;2023-12-22T08:47:24;3.15;;;0.80;;
33108;SDS011;19481;51.118;6.940;2023-12-22T08:52:26;5.25;;;0.90;;
33108;SDS011;19481;51.118;6.940;2023-12-22T08:57:29;0.77;;;0.68;;
33108;SDS011;19481;51.118;6.940;2023-12-22T09:02:31;0.95;;;0.60;;
33108;SDS011;19481;51.118;6.940;2023-12-22T09:07:32;4.82;;;0.70;;
33108;SDS011;19481;51.118;6.940;2023-12-22T09:12:35;4.82;;;1.35;;
33108;SDS011;19481;51.118;6.940;2023-12-22T09:17:37;3.08;;;1.00;;
33108;SDS011;19481;51.118;6.940;2023-12-22T09:22:39;1.10;;;0.80;;
33108;SDS011;19481;51.118;6.940;2023-12-22T09:27:41;0.80;;;0.80;;
33108;SDS011;19481;51.118;6.940;2023-12-22T09:32:43;0.68;;;0.68;;
33108;SDS011;19481;51.118;6.940;2023-12-22T09:37:45;4.38;;;0.80;;
33108;SDS011;19481;51.118;6.940;2023-12-22T09:42:48;4.50;;;0.90;;
33108;SDS011;19481;51.118;6.940;2023-12-22T09:47:50;1.70;;;0.75;;
33108;SDS011;19481;51.118;6.940;2023-12-22T09:52:52;0.70;;;0.70;;
33108;SDS011;19481;51.118;6.940;2023-12-22T09:57:55;0.70;;;0.70;;
33108;SDS011;19481;51.118;6.940;2023-12-22T10:02:58;2.80;;;0.70;;
33108;SDS011;19481;51.118;6.940;2023-12-22T10:08:00;4.32;;;0.77;;
33108;SDS011;19481;51.118;6.940;2023-12-22T10:13:03;0.60;;;0.60;;
33108;SDS011;19481;51.118;6.940;2023-12-22T10:18:09;1.58;;;0.80;;
33108;SDS011;19481;51.118;6.940;2023-12-22T10:23:10;1.10;;;0.93;;
33108;SDS011;19481;51.118;6.940;2023-12-22T10:28:13;1.45;;;0.82;;
33108;SDS011;19481;51.118;6.940;2023-12-22T10:33:17;0.60;;;0.60;;
33108;SDS011;19481;51.118;6.940;2023-12-22T10:38:19;0.50;;;0.50;;
33108;SDS011;19481;51.118;6.940;2023-12-22T10:43:23;0.75;;;0.75;;
33108;SDS011;19481;51.118;6.940;2023-12-22T10:48:26;5.25;;;0.60;;
33108;SDS011;19481;51.118;6.940;2023-12-22T10:59:29;0.70;;;0.70;;
33108;SDS011;19481;51.118;6.940;2023-12-22T11:04:31;0.63;;;0.63;;
33108;SDS011;19481;51.118;6.940;2023-12-22T11:09:38;1.70;;;0.77;;
33108;SDS011;19481;51.118;6.940;2023-12-22T11:14:46;0.60;;;0.60;;
33108;SDS011;19481;51.118;6.940;2023-12-22T11:19:51;3.25;;;0.82;;
33108;SDS011;19481;51.118;6.940;2023-12-22T11:24:55;0.70;;;0.70;;
33108;SDS011;19481;51.118;6.940;2023-12-22T11:29:59;0.75;;;0.60;;
33108;SDS011;19481;51.118;6.940;2023-12-22T11:35:02;0.88;;;0.60;;
33108;SDS011;19481;51.118;6.940;2023-12-22T11:40:06;0.90;;;0.90;;
33108;SDS011;19481;51.118;6.940;2023-12-22T11:45:10;0.73;;;0.73;;
33108;SDS011;19481;51.118;6.940;2023-12-22T11:50:14;0.60;;;0.60;;
33108;SDS011;19481;51.118;6.940;2023-12-22T12:01:00;0.60;;;0.60;;
33108;SDS011;19481;51.118;6.940;2023-12-22T12:17:19;0.60;;;0.60;;
33108;SDS011;19481;51.118;6.940;2023-12-22T12:22:21;0.70;;;0.70;;
33108;SDS011;19481;51.118;6.940;2023-12-22T12:27:25;0.60;;;0.60;;
33108;SDS011;19481;51.118;6.940;2023-12-22T12:32:27;0.60;;;0.60;;
33108;SDS011;19481;51.118;6.940;2023-12-22T12:37:29;0.60;;;0.60;;
33108;SDS011;19481;51.118;6.940;2023-12-22T12:42:32;0.57;;;0.57;;
33108;SDS011;19481;51.118;6.940;2023-12-22T12:47:37;2.05;;;0.75;;
33108;SDS011;19481;51.118;6.940;2023-12-22T12:52:39;0.40;;;0.40;;
33108;SDS011;19481;51.118;6.940;2023-12-22T12:57:40;0.70;;;0.70;;
33108;SDS011;19481;51.118;6.940;2023-12-22T13:02:43;0.60;;;0.60;;
33108;SDS011;19481;51.118;6.940;2023-12-22T13:07:45;0.60;;;0.60;;
33108;SDS011;19481;51.118;6.940;2023-12-22T13:12:46;0.50;;;0.50;;
33108;SDS011;19481;51.118;6.940;2023-12-22T13:17:49;0.60;;;0.60;;
33108;SDS011;19481;51.118;6.940;2023-12-22T13:22:51;0.73;;;0.70;;
33108;SDS011;19481;51.118;6.940;2023-12-22T13:27:53;0.57;;;0.57;;
33108;SDS011;19481;51.118;6.940;2023-12-22T13:32:57;0.63;;;0.63;;
33108;SDS011;19481;51.118;6.940;2023-12-22T13:37:59;2.05;;;0.57;;
33108;SDS011;19481;51.118;6.940;2023-12-22T13:43:00;0.40;;;0.40;;
33108;SDS011;19481;51.118;6.940;2023-12-22T13:48:04;5.88;;;0.60;;
33108;SDS011;19481;51.118;6.940;2023-12-22T13:53:07;1.27;;;0.63;;
33108;SDS011;19481;51.118;6.940;2023-12-22T13:58:09;0.73;;;0.70;;
33108;SDS011;19481;51.118;6.940;2023-12-22T14:03:13;1.20;;;0.98;;
33108;SDS011;19481;51.118;6.940;2023-12-22T14:08:16;0.60;;;0.60;;
33108;SDS011;19481;51.118;6.940;2023-12-22T14:13:18;0.50;;;0.50;;
33108;SDS011;19481;51.118;6.940;2023-12-22T14:18:21;0.60;;;0.60;;
33108;SDS011;19481;51.118;6.940;2023-12-22T14:23:22;0.50;;;0.50;;
33108;SDS011;19481;51.118;6.940;2023-12-22T14:28:24;0.50;;;0.50;;
33108;SDS011;19481;51.118;6.940;2023-12-22T14:33:27;0.63;;;0.63;;
33108;SDS011;19481;51.118;6.940;2023-12-22T14:38:28;0.55;;;0.55;;
33108;SDS011;19481;51.118;6.940;2023-12-22T14:43:30;0.60;;;0.60;;
33108;SDS011;19481;51.118;6.940;2023-12-22T14:48:33;0.65;;;0.65;;
33108;SDS011;19481;51.118;6.940;2023-12-22T14:53:34;0.50;;;0.50;;
33108;SDS011;19481;51.118;6.940;2023-12-22T14:58:36;0.50;;;0.50;;
33108;SDS011;19481;51.118;6.940;2023-12-22T15:03:39;0.60;;;0.60;;
33108;SDS011;19481;51.118;6.940;2023-12-22T15:08:40;0.57;;;0.57;;
33108;SDS011;19481;51.118;6.940;2023-12-22T15:13:42;0.57;;;0.50;;
33108;SDS011;19481;51.118;6.940;2023-12-22T15:18:45;0.93;;;0.50;;
33108;SDS011;19481;51.118;6.940;2023-12-22T15:23:46;0.60;;;0.60;;
33108;SDS011;19481;51.118;6.940;2023-12-22T15:28:48;0.50;;;0.50;;
33108;SDS011;19481;51.118;6.940;2023-12-22T15:33:51;0.50;;;0.50;;
33108;SDS011;19481;51.118;6.940;2023-12-22T15:38:52;0.60;;;0.60;;
33108;SDS011;19481;51.118;6.940;2023-12-22T15:43:54;0.60;;;0.60;;
33108;SDS011;19481;51.118;6.940;2023-12-22T15:48:57;0.68;;;0.65;;
33108;SDS011;19481;51.118;6.940;2023-12-22T15:53:59;0.57;;;0.57;;
33108;SDS011;19481;51.118;6.940;2023-12-22T15:59:00;0.80;;;0.80;;
33108;SDS011;19481;51.118;6.940;2023-12-22T16:04:03;2.38;;;0.60;;
33108;SDS011;19481;51.118;6.940;2023-12-22T16:09:05;0.50;;;0.50;;
33108;SDS011;19481;51.118;6.940;2023-12-22T16:14:06;2.75;;;0.60;;
33108;SDS011;19481;51.118;6.940;2023-12-22T16:19:09;0.50;;;0.50;;
33108;SDS011;19481;51.118;6.940;2023-12-22T16:24:11;0.80;;;0.70;;
33108;SDS011;19481;51.118;6.940;2023-12-22T16:29:12;0.47;;;0.47;;
33108;SDS011;19481;51.118;6.940;2023-12-22T16:34:16;0.50;;;0.50;;
33108;SDS011;19481;51.118;6.940;2023-12-22T16:39:17;0.60;;;0.60;;
33108;SDS011;19481;51.118;6.940;2023-12-22T16:44:19;1.85;;;0.70;;
33108;SDS011;19481;51.118;6.940;2023-12-22T16:49:23;0.50;;;0.50;;
33108;SDS011;19481;51.118;6.940;2023-12-22T16:54:24;0.75;;;0.75;;
33108;SDS011;19481;51.118;6.940;2023-12-22T16:59:26;0.70;;;0.70;;
33108;SDS011;19481;51.118;6.940;2023-12-22T17:04:29;3.40;;;0.70;;
33108;SDS011;19481;51.118;6.940;2023-12-22T17:09:31;0.80;;;0.80;;
33108;SDS011;19481;51.118;6.940;2023-12-22T17:14:32;0.70;;;0.45;;
33108;SDS011;19481;51.118;6.940;2023-12-22T17:19:35;0.50;;;0.50;;
33108;SDS011;19481;51.118;6.940;2023-12-22T17:24:37;0.73;;;0.60;;
33108;SDS011;19481;51.118;6.940;2023-12-22T17:29:43;0.50;;;0.50;;
33108;SDS011;19481;51.118;6.940;2023-12-22T17:34:46;0.50;;;0.50;;
33108;SDS011;19481;51.118;6.940;2023-12-22T17:39:48;2.88;;;0.82;;
33108;SDS011;19481;51.118;6.940;2023-12-22T17:44:49;0.60;;;0.60;;
33108;SDS011;19481;51.118;6.940;2023-12-22T17:49:52;0.50;;;0.50;;
33108;SDS011;19481;51.118;6.940;2023-12-22T17:54:54;0.52;;;0.52;;
33108;SDS011;19481;51.118;6.940;2023-12-22T17:59:55;0.50;;;0.50;;
33108;SDS011;19481;51.118;6.940;2023-12-22T18:04:58;0.95;;;0.60;;
33108;SDS011;19481;51.118;6.940;2023-12-22T18:10:01;0.70;;;0.70;;
33108;SDS011;19481;51.118;6.940;2023-12-22T18:15:03;0.47;;;0.47;;
33108;SDS011;19481;51.118;6.940;2023-12-22T18:20:08;1.30;;;0.60;;
33108;SDS011;19481;51.118;6.940;2023-12-22T18:25:10;0.60;;;0.60;;
33108;SDS011;19481;51.118;6.940;2023-12-22T18:30:12;2.17;;;0.73;;
33108;SDS011;19481;51.118;6.940;2023-12-22T18:35:15;0.65;;;0.65;;
33108;SDS011;19481;51.118;6.940;2023-12-22T18:40:17;0.85;;;0.85;;
33108;SDS011;19481;51.118;6.940;2023-12-22T18:45:18;2.28;;;0.57;;
33108;SDS011;19481;51.118;6.940;2023-12-22T18:50:21;0.50;;;0.50;;
33108;SDS011;19481;51.118;6.940;2023-12-22T18:55:23;0.50;;;0.50;;
33108;SDS011;19481;51.118;6.940;2023-12-22T19:00:24;0.60;;;0.60;;
33108;SDS011;19481;51.118;6.940;2023-12-22T19:05:28;0.80;;;0.80;;
33108;SDS011;19481;51.118;6.940;2023-12-22T19:10:29;0.63;;;0.50;;
33108;SDS011;19481;51.118;6.940;2023-12-22T19:15:31;2.22;;;0.80;;
33108;SDS011;19481;51.118;6.940;2023-12-22T19:20:33;2.13;;;0.55;;
33108;SDS011;19481;51.118;6.940;2023-12-22T19:25:35;0.63;;;0.63;;
33108;SDS011;19481;51.118;6.940;2023-12-22T19:30:37;0.65;;;0.65;;
33108;SDS011;19481;51.118;6.940;2023-12-22T19:35:40;2.78;;;0.70;;
33108;SDS011;19481;51.118;6.940;2023-12-22T19:40:41;0.60;;;0.60;;
33108;SDS011;19481;51.118;6.940;2023-12-22T19:45:45;1.25;;;0.90;;
33108;SDS011;19481;51.118;6.940;2023-12-22T19:50:48;0.68;;;0.68;;
33108;SDS011;19481;51.118;6.940;2023-12-22T19:55:50;0.82;;;0.68;;
33108;SDS011;19481;51.118;6.940;2023-12-22T20:00:51;2.05;;;0.52;;
33108;SDS011;19481;51.118;6.940;2023-12-22T20:05:54;0.50;;;0.50;;
33108;SDS011;19481;51.118;6.940;2023-12-22T20:10:56;0.52;;;0.52;;
33108;SDS011;19481;51.118;6.940;2023-12-22T20:15:58;0.50;;;0.50;;
33108;SDS011;19481;51.118;6.940;2023-12-22T20:21:02;0.70;;;0.70;;
33108;SDS011;19481;51.118;6.940;2023-12-22T20:26:05;1.23;;;0.50;;
33108;SDS011;19481;51.118;6.940;2023-12-22T20:31:07;3.15;;;0.60;;
33108;SDS011;19481;51.118;6.940;2023-12-22T20:36:11;0.47;;;0.47;;
33108;SDS011;19481;51.118;6.940;2023-12-22T20:41:12;0.50;;;0.50;;
33108;SDS011;19481;51.118;6.940;2023-12-22T20:46:14;0.60;;;0.60;;
33108;SDS011;19481;51.118;6.940;2023-12-22T20:51:17;0.73;;;0.60;;
33108;SDS011;19481;51.118;6.940;2023-12-22T20:56:19;0.50;;;0.50;;
33108;SDS011;19481;51.118;6.940;2023-12-22T21:01:23;1.20;;;0.77;;
33108;SDS011;19481;51.118;6.940;2023-12-22T21:06:27;2.72;;;0.57;;
33108;SDS011;19481;51.118;6.940;2023-12-22T21:11:29;0.57;;;0.57;;
33108;SDS011;19481;51.118;6.940;2023-12-22T21:16:30;0.80;;;0.73;;
33108;SDS011;19481;51.118;6.940;2023-12-22T21:21:33;0.45;;;0.45;;
33108;SDS011;19481;51.118;6.940;2023-12-22T21:26:35;0.95;;;0.90;;
33108;SDS011;19481;51.118;6.940;2023-12-22T21:31:40;0.50;;;0.50;;
33108;SDS011;19481;51.118;6.940;2023-12-22T21:36:44;0.50;;;0.50;;
33108;SDS011;19481;51.118;6.940;2023-12-22T21:41:48;0.50;;;0.50;;
33108;SDS011;19481;51.118;6.940;2023-12-22T21:46:50;0.50;;;0.50;;
33108;SDS011;19481;51.118;6.940;2023-12-22T21:51:53;0.50;;;0.50;;
33108;SDS011;19481;51.118;6.940;2023-12-22T21:56:54;4.65;;;0.50;;
33108;SDS011;19481;51.118;6.940;2023-12-22T22:01:58;0.40;;;0.40;;
33108;SDS011;19481;51.118;6.940;2023-12-22T22:07:01;0.40;;;0.40;;
33108;SDS011;19481;51.118;6.940;2023-12-22T22:12:03;0.60;;;0.60;;
33108;SDS011;19481;51.118;6.940;2023-12-22T22:17:06;0.52;;;0.52;;
33108;SDS011;19481;51.118;6.940;2023-12-22T22:22:10;0.50;;;0.50;;
33108;SDS011;19481;51.118;6.940;2023-12-22T22:27:11;0.50;;;0.50;;
33108;SDS011;19481;51.118;6.940;2023-12-22T22:32:13;2.38;;;0.57;;
33108;SDS011;19481;51.118;6.940;2023-12-22T22:37:17;0.50;;;0.50;;
33108;SDS011;19481;51.118;6.940;2023-12-22T22:42:19;0.63;;;0.60;;
33108;SDS011;19481;51.118;6.940;2023-12-22T22:47:20;0.45;;;0.45;;
33108;SDS011;19481;51.118;6.940;2023-12-22T22:52:23;0.50;;;0.50;;
33108;SDS011;19481;51.118;6.940;2023-12-22T22:57:25;0.50;;;0.50;;
33108;SDS011;19481;51.118;6.940;2023-12-22T23:02:26;0.32;;;0.32;;
33108;SDS011;19481;51.118;6.940;2023-12-22T23:07:30;0.43;;;0.43;;
33108;SDS011;19481;51.118;6.940;2023-12-22T23:12:33;1.38;;;0.73;;
33108;SDS011;19481;51.118;6.940;2023-12-22T23:17:34;0.50;;;0.50;;
33108;SDS011;19481;51.118;6.940;2023-12-22T23:22:37;0.50;;;0.50;;
33108;SDS011;19481;51.118;6.940;2023-12-22T23:27:39;0.43;;;0.43;;
33108;SDS011;19481;51.118;6.940;2023-12-22T23:32:41;0.60;;;0.60;;
33108;SDS011;19481;51.118;6.940;2023-12-22T23:37:44;0.95;;;0.50;;
33108;SDS011;19481;51.118;6.940;2023-12-22T23:42:45;0.60;;;0.60;;
33108;SDS011;19481;51.118;6.940;2023-12-22T23:47:47;5.15;;;0.63;;
33108;SDS011;19481;51.118;6.940;2023-12-22T23:52:50;0.60;;;0.60;;
33108;SDS011;19481;51.118;6.940;2023-12-22T23:57:51;0.60;;;0.60;;
